sensor_id;sensor_type;location;lat;lon;timestamp;temperature;humidity
19493;DHT22;9887;54.366;10.958;2024-02-15T00:00:06;9.60;99.90
19493;DHT22;9887;54.366;10.958;2024-02-15T00:02:37;9.60;99.90
19493;DHT22;9887;54.366;10.958;2024-02-15T00:05:24;9.60;99.90
19493;DHT22;9887;54.366;10.958;2024-02-15T00:07:52;9.60;99.90
19493;DHT22;9887;54.366;10.958;2024-02-15T00:10:21;9.60;99.90
19493;DHT22;9887;54.366;10.958;2024-02-15T00:12:51;9.60;99.90
19493;DHT22;9887;54.366;10.958;2024-02-15T00:15:19;9.60;99.90
19493;DHT22;9887;54.366;10.958;2024-02-15T00:17:47;9.60;99.90
19493;DHT22;9887;54.366;10.958;2024-02-15T00:20:16;9.70;99.90
19493;DHT22;9887;54.366;10.958;2024-02-15T00:22:48;9.70;99.90
19493;DHT22;9887;54.366;10.958;2024-02-15T00:25:17;9.70;99.90
19493;DHT22;9887;54.366;10.958;2024-02-15T00:27:46;9.70;99.90
19493;DHT22;9887;54.366;10.958;2024-02-15T00:30:15;9.70;99.90
19493;DHT22;9887;54.366;10.958;2024-02-15T00:32:46;9.70;99.90
19493;DHT22;9887;54.366;10.958;2024-02-15T00:35:15;9.70;99.90
19493;DHT22;9887;54.366;10.958;2024-02-15T00:37:44;9.70;99.90
19493;DHT22;9887;54.366;10.958;2024-02-15T00:40:13;9.70;99.90
19493;DHT22;9887;54.366;10.958;2024-02-15T00:42:41;9.70;99.90
19493;DHT22;9887;54.366;10.958;2024-02-15T00:45:09;9.70;99.90
19493;DHT22;9887;54.366;10.958;2024-02-15T00:47:38;9.70;99.90
19493;DHT22;9887;54.366;10.958;2024-02-15T00:50:09;9.70;99.90
19493;DHT22;9887;54.366;10.958;2024-02-15T00:52:37;9.70;99.90
19493;DHT22;9887;54.366;10.958;2024-02-15T00:55:06;9.70;99.90
19493;DHT22;9887;54.366;10.958;2024-02-15T00:57:35;9.70;99.90
19493;DHT22;9887;54.366;10.958;2024-02-15T01:00:04;9.70;99.90
19493;DHT22;9887;54.366;10.958;2024-02-15T01:02:35;9.70;99.90
19493;DHT22;9887;54.366;10.958;2024-02-15T01:05:07;9.70;99.90
19493;DHT22;9887;54.366;10.958;2024-02-15T01:07:37;9.70;99.90
19493;DHT22;9887;54.366;10.958;2024-02-15T01:10:06;9.80;99.90
19493;DHT22;9887;54.366;10.958;2024-02-15T01:12:36;9.70;99.90
19493;DHT22;9887;54.366;10.958;2024-02-15T01:15:08;9.80;99.90
19493;DHT22;9887;54.366;10.958;2024-02-15T01:17:38;9.80;99.90
19493;DHT22;9887;54.366;10.958;2024-02-15T01:20:07;9.70;99.90
19493;DHT22;9887;54.366;10.958;2024-02-15T01:22:36;9.70;99.90
19493;DHT22;9887;54.366;10.958;2024-02-15T01:25:04;9.80;99.90
19493;DHT22;9887;54.366;10.958;2024-02-15T01:27:33;9.80;99.90
19493;DHT22;9887;54.366;10.958;2024-02-15T01:30:03;9.80;99.90
19493;DHT22;9887;54.366;10.958;2024-02-15T01:32:32;9.80;99.90
19493;DHT22;9887;54.366;10.958;2024-02-15T01:35:00;9.70;99.90
19493;DHT22;9887;54.366;10.958;2024-02-15T01:37:29;9.80;99.90
19493;DHT22;9887;54.366;10.958;2024-02-15T01:39:57;9.70;99.90
19493;DHT22;9887;54.366;10.958;2024-02-15T01:42:25;9.80;99.90
19493;DHT22;9887;54.366;10.958;2024-02-15T01:44:54;9.80;99.90
19493;DHT22;9887;54.366;10.958;2024-02-15T01:47:23;9.80;99.90
19493;DHT22;9887;54.366;10.958;2024-02-15T01:49:52;9.80;99.90
19493;DHT22;9887;54.366;10.958;2024-02-15T01:52:21;9.70;99.90
19493;DHT22;9887;54.366;10.958;2024-02-15T01:54:51;9.80;99.90
19493;DHT22;9887;54.366;10.958;2024-02-15T01:57:20;9.80;99.90
19493;DHT22;9887;54.366;10.958;2024-02-15T01:59:50;9.80;99.90
19493;DHT22;9887;54.366;10.958;2024-02-15T02:02:24;9.80;99.90
19493;DHT22;9887;54.366;10.958;2024-02-15T02:04:53;9.80;99.90
19493;DHT22;9887;54.366;10.958;2024-02-15T02:07:24;9.80;99.90
19493;DHT22;9887;54.366;10.958;2024-02-15T02:09:52;9.80;99.90
19493;DHT22;9887;54.366;10.958;2024-02-15T02:12:25;9.80;99.90
19493;DHT22;9887;54.366;10.958;2024-02-15T02:14:54;9.80;99.90
19493;DHT22;9887;54.366;10.958;2024-02-15T02:17:23;9.80;99.90
19493;DHT22;9887;54.366;10.958;2024-02-15T02:19:51;9.80;99.90
19493;DHT22;9887;54.366;10.958;2024-02-15T02:22:19;9.80;99.90
19493;DHT22;9887;54.366;10.958;2024-02-15T02:25:01;9.80;99.90
19493;DHT22;9887;54.366;10.958;2024-02-15T02:27:32;9.80;99.90
19493;DHT22;9887;54.366;10.958;2024-02-15T02:30:00;9.80;99.90
19493;DHT22;9887;54.366;10.958;2024-02-15T02:32:28;9.80;99.90
19493;DHT22;9887;54.366;10.958;2024-02-15T02:34:56;9.80;99.90
19493;DHT22;9887;54.366;10.958;2024-02-15T02:37:25;9.80;99.90
19493;DHT22;9887;54.366;10.958;2024-02-15T02:39:53;9.80;99.90
19493;DHT22;9887;54.366;10.958;2024-02-15T02:42:22;9.80;99.90
19493;DHT22;9887;54.366;10.958;2024-02-15T02:44:50;9.80;99.90
19493;DHT22;9887;54.366;10.958;2024-02-15T02:47:18;9.80;99.90
19493;DHT22;9887;54.366;10.958;2024-02-15T02:49:46;9.80;99.90
19493;DHT22;9887;54.366;10.958;2024-02-15T02:52:14;9.80;99.90
19493;DHT22;9887;54.366;10.958;2024-02-15T02:54:42;9.80;99.90
19493;DHT22;9887;54.366;10.958;2024-02-15T02:57:10;9.80;99.90
19493;DHT22;9887;54.366;10.958;2024-02-15T02:59:39;9.80;99.90
19493;DHT22;9887;54.366;10.958;2024-02-15T03:02:07;9.80;99.90
19493;DHT22;9887;54.366;10.958;2024-02-15T03:04:35;9.80;99.90
19493;DHT22;9887;54.366;10.958;2024-02-15T03:07:06;9.80;99.90
19493;DHT22;9887;54.366;10.958;2024-02-15T03:09:33;9.80;99.90
19493;DHT22;9887;54.366;10.958;2024-02-15T03:12:04;9.80;99.90
19493;DHT22;9887;54.366;10.958;2024-02-15T03:14:32;9.90;99.90
19493;DHT22;9887;54.366;10.958;2024-02-15T03:17:03;9.80;99.90
19493;DHT22;9887;54.366;10.958;2024-02-15T03:19:31;9.90;99.90
19493;DHT22;9887;54.366;10.958;2024-02-15T03:21:59;9.90;99.90
19493;DHT22;9887;54.366;10.958;2024-02-15T03:24:27;9.90;99.90
19493;DHT22;9887;54.366;10.958;2024-02-15T03:26:55;9.90;99.90
19493;DHT22;9887;54.366;10.958;2024-02-15T03:29:23;9.90;99.90
19493;DHT22;9887;54.366;10.958;2024-02-15T03:31:51;9.80;99.90
19493;DHT22;9887;54.366;10.958;2024-02-15T03:34:21;9.80;99.90
19493;DHT22;9887;54.366;10.958;2024-02-15T03:36:51;9.90;99.90
19493;DHT22;9887;54.366;10.958;2024-02-15T03:39:20;9.90;99.90
19493;DHT22;9887;54.366;10.958;2024-02-15T03:41:50;9.90;99.90
19493;DHT22;9887;54.366;10.958;2024-02-15T03:44:18;9.90;99.90
19493;DHT22;9887;54.366;10.958;2024-02-15T03:46:46;9.90;99.90
19493;DHT22;9887;54.366;10.958;2024-02-15T03:49:18;9.90;99.90
19493;DHT22;9887;54.366;10.958;2024-02-15T03:51:47;9.90;99.90
19493;DHT22;9887;54.366;10.958;2024-02-15T03:54:16;9.90;99.90
19493;DHT22;9887;54.366;10.958;2024-02-15T03:56:47;9.90;99.90
19493;DHT22;9887;54.366;10.958;2024-02-15T03:59:18;9.90;99.90
19493;DHT22;9887;54.366;10.958;2024-02-15T04:01:51;9.90;99.90
19493;DHT22;9887;54.366;10.958;2024-02-15T04:04:20;9.90;99.90
19493;DHT22;9887;54.366;10.958;2024-02-15T04:06:50;9.90;99.90
19493;DHT22;9887;54.366;10.958;2024-02-15T04:09:19;9.90;99.90
19493;DHT22;9887;54.366;10.958;2024-02-15T04:11:48;9.90;99.90
19493;DHT22;9887;54.366;10.958;2024-02-15T04:14:19;9.90;99.90
19493;DHT22;9887;54.366;10.958;2024-02-15T04:16:47;9.90;99.90
19493;DHT22;9887;54.366;10.958;2024-02-15T04:19:15;9.90;99.90
19493;DHT22;9887;54.366;10.958;2024-02-15T04:21:46;9.90;99.90
19493;DHT22;9887;54.366;10.958;2024-02-15T04:24:16;9.90;99.90
19493;DHT22;9887;54.366;10.958;2024-02-15T04:26:44;9.90;99.90
19493;DHT22;9887;54.366;10.958;2024-02-15T04:29:15;9.90;99.90
19493;DHT22;9887;54.366;10.958;2024-02-15T04:31:44;9.90;99.90
19493;DHT22;9887;54.366;10.958;2024-02-15T04:34:16;9.90;99.90
19493;DHT22;9887;54.366;10.958;2024-02-15T04:36:47;9.90;99.90
19493;DHT22;9887;54.366;10.958;2024-02-15T04:39:18;9.90;99.90
19493;DHT22;9887;54.366;10.958;2024-02-15T04:41:51;9.90;99.90
19493;DHT22;9887;54.366;10.958;2024-02-15T04:44:19;9.90;99.90
19493;DHT22;9887;54.366;10.958;2024-02-15T04:46:48;9.90;99.90
19493;DHT22;9887;54.366;10.958;2024-02-15T04:49:17;9.90;99.90
19493;DHT22;9887;54.366;10.958;2024-02-15T04:51:45;9.90;99.90
19493;DHT22;9887;54.366;10.958;2024-02-15T04:54:14;9.90;99.90
19493;DHT22;9887;54.366;10.958;2024-02-15T04:56:44;9.90;99.90
19493;DHT22;9887;54.366;10.958;2024-02-15T04:59:12;9.90;99.90
19493;DHT22;9887;54.366;10.958;2024-02-15T05:01:42;9.90;99.90
19493;DHT22;9887;54.366;10.958;2024-02-15T05:04:10;9.90;99.90
19493;DHT22;9887;54.366;10.958;2024-02-15T05:06:38;9.90;99.90
19493;DHT22;9887;54.366;10.958;2024-02-15T05:09:07;9.90;99.90
19493;DHT22;9887;54.366;10.958;2024-02-15T05:11:37;9.90;99.90
19493;DHT22;9887;54.366;10.958;2024-02-15T05:14:09;9.90;99.90
19493;DHT22;9887;54.366;10.958;2024-02-15T05:16:38;9.90;99.90
19493;DHT22;9887;54.366;10.958;2024-02-15T05:19:10;9.90;99.90
19493;DHT22;9887;54.366;10.958;2024-02-15T05:21:39;9.90;99.90
19493;DHT22;9887;54.366;10.958;2024-02-15T05:24:07;9.90;99.90
19493;DHT22;9887;54.366;10.958;2024-02-15T05:26:35;9.90;99.90
19493;DHT22;9887;54.366;10.958;2024-02-15T05:29:03;9.90;99.90
19493;DHT22;9887;54.366;10.958;2024-02-15T05:31:32;9.90;99.90
19493;DHT22;9887;54.366;10.958;2024-02-15T05:34:01;9.90;99.90
19493;DHT22;9887;54.366;10.958;2024-02-15T05:36:29;10.00;99.90
19493;DHT22;9887;54.366;10.958;2024-02-15T05:38:57;10.00;99.90
19493;DHT22;9887;54.366;10.958;2024-02-15T05:41:25;10.00;99.90
19493;DHT22;9887;54.366;10.958;2024-02-15T05:43:53;10.00;99.90
19493;DHT22;9887;54.366;10.958;2024-02-15T05:46:21;10.00;99.90
19493;DHT22;9887;54.366;10.958;2024-02-15T05:48:51;9.90;99.90
19493;DHT22;9887;54.366;10.958;2024-02-15T05:51:19;10.00;99.90
19493;DHT22;9887;54.366;10.958;2024-02-15T05:53:47;9.90;99.90
19493;DHT22;9887;54.366;10.958;2024-02-15T05:56:16;10.00;99.90
19493;DHT22;9887;54.366;10.958;2024-02-15T05:58:44;10.00;99.90
19493;DHT22;9887;54.366;10.958;2024-02-15T06:01:12;10.00;99.90
19493;DHT22;9887;54.366;10.958;2024-02-15T06:03:40;10.00;99.90
19493;DHT22;9887;54.366;10.958;2024-02-15T06:06:12;10.00;99.90
19493;DHT22;9887;54.366;10.958;2024-02-15T06:08:40;10.00;99.90
19493;DHT22;9887;54.366;10.958;2024-02-15T06:11:08;10.00;99.90
19493;DHT22;9887;54.366;10.958;2024-02-15T06:13:37;10.00;99.90
19493;DHT22;9887;54.366;10.958;2024-02-15T06:16:05;10.00;99.90
19493;DHT22;9887;54.366;10.958;2024-02-15T06:18:36;10.00;99.90
19493;DHT22;9887;54.366;10.958;2024-02-15T06:21:05;10.00;99.90
19493;DHT22;9887;54.366;10.958;2024-02-15T06:23:34;10.00;99.90
19493;DHT22;9887;54.366;10.958;2024-02-15T06:26:03;10.00;99.90
19493;DHT22;9887;54.366;10.958;2024-02-15T06:28:32;10.00;99.90
19493;DHT22;9887;54.366;10.958;2024-02-15T06:31:17;10.00;99.90
19493;DHT22;9887;54.366;10.958;2024-02-15T06:34:03;10.10;99.90
19493;DHT22;9887;54.366;10.958;2024-02-15T06:36:50;10.00;99.90
19493;DHT22;9887;54.366;10.958;2024-02-15T06:39:36;10.00;99.90
19493;DHT22;9887;54.366;10.958;2024-02-15T06:42:12;10.10;99.90
19493;DHT22;9887;54.366;10.958;2024-02-15T06:44:43;10.10;99.90
19493;DHT22;9887;54.366;10.958;2024-02-15T06:47:11;10.10;99.90
19493;DHT22;9887;54.366;10.958;2024-02-15T06:49:39;10.10;99.90
19493;DHT22;9887;54.366;10.958;2024-02-15T06:52:08;10.10;99.90
19493;DHT22;9887;54.366;10.958;2024-02-15T06:54:40;10.10;99.90
19493;DHT22;9887;54.366;10.958;2024-02-15T06:57:09;10.10;99.90
19493;DHT22;9887;54.366;10.958;2024-02-15T06:59:37;10.10;99.90
19493;DHT22;9887;54.366;10.958;2024-02-15T07:02:06;10.10;99.90
19493;DHT22;9887;54.366;10.958;2024-02-15T07:04:35;10.10;99.90
19493;DHT22;9887;54.366;10.958;2024-02-15T07:07:04;10.20;99.90
19493;DHT22;9887;54.366;10.958;2024-02-15T07:09:32;10.20;99.90
19493;DHT22;9887;54.366;10.958;2024-02-15T07:12:01;10.20;99.90
19493;DHT22;9887;54.366;10.958;2024-02-15T07:14:29;10.20;99.90
19493;DHT22;9887;54.366;10.958;2024-02-15T07:16:57;10.10;99.90
19493;DHT22;9887;54.366;10.958;2024-02-15T07:19:25;10.20;99.90
19493;DHT22;9887;54.366;10.958;2024-02-15T07:21:54;10.20;99.90
19493;DHT22;9887;54.366;10.958;2024-02-15T07:24:23;10.20;99.90
19493;DHT22;9887;54.366;10.958;2024-02-15T07:26:54;10.20;99.90
19493;DHT22;9887;54.366;10.958;2024-02-15T07:29:23;10.20;99.90
19493;DHT22;9887;54.366;10.958;2024-02-15T07:31:52;10.20;99.90
19493;DHT22;9887;54.366;10.958;2024-02-15T07:34:20;10.20;99.90
19493;DHT22;9887;54.366;10.958;2024-02-15T07:36:50;10.20;99.90
19493;DHT22;9887;54.366;10.958;2024-02-15T07:39:19;10.20;99.90
19493;DHT22;9887;54.366;10.958;2024-02-15T07:41:51;10.20;99.90
19493;DHT22;9887;54.366;10.958;2024-02-15T07:44:19;10.30;99.90
19493;DHT22;9887;54.366;10.958;2024-02-15T07:46:48;10.30;99.90
19493;DHT22;9887;54.366;10.958;2024-02-15T07:49:17;10.30;99.90
19493;DHT22;9887;54.366;10.958;2024-02-15T07:51:45;10.30;99.90
19493;DHT22;9887;54.366;10.958;2024-02-15T07:54:19;10.30;99.90
19493;DHT22;9887;54.366;10.958;2024-02-15T07:56:48;10.30;99.90
19493;DHT22;9887;54.366;10.958;2024-02-15T07:59:16;10.30;99.90
19493;DHT22;9887;54.366;10.958;2024-02-15T08:01:44;10.30;99.90
19493;DHT22;9887;54.366;10.958;2024-02-15T08:04:15;10.30;99.90
19493;DHT22;9887;54.366;10.958;2024-02-15T08:06:44;10.40;99.90
19493;DHT22;9887;54.366;10.958;2024-02-15T08:09:12;10.40;99.90
19493;DHT22;9887;54.366;10.958;2024-02-15T08:11:41;10.40;99.90
19493;DHT22;9887;54.366;10.958;2024-02-15T08:14:09;10.40;99.90
19493;DHT22;9887;54.366;10.958;2024-02-15T08:16:40;10.40;99.90
19493;DHT22;9887;54.366;10.958;2024-02-15T08:19:08;10.40;99.90
19493;DHT22;9887;54.366;10.958;2024-02-15T08:21:39;10.40;99.90
19493;DHT22;9887;54.366;10.958;2024-02-15T08:24:13;10.40;99.90
19493;DHT22;9887;54.366;10.958;2024-02-15T08:26:41;10.40;99.90
19493;DHT22;9887;54.366;10.958;2024-02-15T08:29:11;10.50;99.90
19493;DHT22;9887;54.366;10.958;2024-02-15T08:31:40;10.40;99.90
19493;DHT22;9887;54.366;10.958;2024-02-15T08:34:08;10.50;99.90
19493;DHT22;9887;54.366;10.958;2024-02-15T08:36:42;10.50;99.90
19493;DHT22;9887;54.366;10.958;2024-02-15T08:39:10;10.50;99.90
19493;DHT22;9887;54.366;10.958;2024-02-15T08:41:39;10.50;99.90
19493;DHT22;9887;54.366;10.958;2024-02-15T08:44:07;10.50;99.90
19493;DHT22;9887;54.366;10.958;2024-02-15T08:46:38;10.50;99.90
19493;DHT22;9887;54.366;10.958;2024-02-15T08:49:06;10.50;99.90
19493;DHT22;9887;54.366;10.958;2024-02-15T08:51:34;10.60;99.90
19493;DHT22;9887;54.366;10.958;2024-02-15T08:54:04;10.60;99.90
19493;DHT22;9887;54.366;10.958;2024-02-15T08:56:33;10.60;99.90
19493;DHT22;9887;54.366;10.958;2024-02-15T08:59:02;10.60;99.90
19493;DHT22;9887;54.366;10.958;2024-02-15T09:01:30;10.70;99.90
19493;DHT22;9887;54.366;10.958;2024-02-15T09:03:59;10.60;99.90
19493;DHT22;9887;54.366;10.958;2024-02-15T09:06:28;10.60;99.90
19493;DHT22;9887;54.366;10.958;2024-02-15T09:08:57;10.60;99.90
19493;DHT22;9887;54.366;10.958;2024-02-15T09:11:29;10.70;99.90
19493;DHT22;9887;54.366;10.958;2024-02-15T09:13:57;10.70;99.90
19493;DHT22;9887;54.366;10.958;2024-02-15T09:16:25;10.70;99.90
19493;DHT22;9887;54.366;10.958;2024-02-15T09:18:53;10.70;99.90
19493;DHT22;9887;54.366;10.958;2024-02-15T09:21:21;10.80;99.90
19493;DHT22;9887;54.366;10.958;2024-02-15T09:23:51;10.80;99.90
19493;DHT22;9887;54.366;10.958;2024-02-15T09:26:19;10.80;99.90
19493;DHT22;9887;54.366;10.958;2024-02-15T09:28:48;10.80;99.90
19493;DHT22;9887;54.366;10.958;2024-02-15T09:31:16;10.80;99.90
19493;DHT22;9887;54.366;10.958;2024-02-15T09:33:44;10.90;99.90
19493;DHT22;9887;54.366;10.958;2024-02-15T09:36:13;10.90;99.90
19493;DHT22;9887;54.366;10.958;2024-02-15T09:38:42;10.90;99.90
19493;DHT22;9887;54.366;10.958;2024-02-15T09:41:10;10.90;99.90
19493;DHT22;9887;54.366;10.958;2024-02-15T09:43:38;10.90;99.90
19493;DHT22;9887;54.366;10.958;2024-02-15T09:46:07;11.10;99.90
19493;DHT22;9887;54.366;10.958;2024-02-15T09:48:35;11.00;99.90
19493;DHT22;9887;54.366;10.958;2024-02-15T09:51:05;11.00;99.90
19493;DHT22;9887;54.366;10.958;2024-02-15T09:53:35;11.00;99.90
19493;DHT22;9887;54.366;10.958;2024-02-15T09:56:03;11.00;99.90
19493;DHT22;9887;54.366;10.958;2024-02-15T09:58:33;11.00;99.90
19493;DHT22;9887;54.366;10.958;2024-02-15T10:01:04;11.10;99.90
19493;DHT22;9887;54.366;10.958;2024-02-15T10:03:38;11.10;99.90
19493;DHT22;9887;54.366;10.958;2024-02-15T10:06:07;11.10;99.90
19493;DHT22;9887;54.366;10.958;2024-02-15T10:08:37;11.10;99.90
19493;DHT22;9887;54.366;10.958;2024-02-15T10:11:06;11.20;99.90
19493;DHT22;9887;54.366;10.958;2024-02-15T10:13:36;11.20;99.90
19493;DHT22;9887;54.366;10.958;2024-02-15T10:16:14;11.20;99.90
19493;DHT22;9887;54.366;10.958;2024-02-15T10:18:44;11.30;99.90
19493;DHT22;9887;54.366;10.958;2024-02-15T10:21:27;11.30;99.90
19493;DHT22;9887;54.366;10.958;2024-02-15T10:24:04;11.30;99.90
19493;DHT22;9887;54.366;10.958;2024-02-15T10:26:34;11.30;99.90
19493;DHT22;9887;54.366;10.958;2024-02-15T10:29:07;11.30;99.90
19493;DHT22;9887;54.366;10.958;2024-02-15T10:31:37;11.30;99.90
19493;DHT22;9887;54.366;10.958;2024-02-15T10:34:08;11.30;99.90
19493;DHT22;9887;54.366;10.958;2024-02-15T10:36:37;11.40;99.90
19493;DHT22;9887;54.366;10.958;2024-02-15T10:39:12;11.40;99.90
19493;DHT22;9887;54.366;10.958;2024-02-15T10:41:45;11.40;99.90
19493;DHT22;9887;54.366;10.958;2024-02-15T10:44:18;11.40;99.90
19493;DHT22;9887;54.366;10.958;2024-02-15T10:46:47;11.50;99.90
19493;DHT22;9887;54.366;10.958;2024-02-15T10:49:20;11.50;99.90
19493;DHT22;9887;54.366;10.958;2024-02-15T10:51:52;11.50;99.90
19493;DHT22;9887;54.366;10.958;2024-02-15T10:54:38;11.50;99.90
19493;DHT22;9887;54.366;10.958;2024-02-15T10:57:10;11.50;99.90
19493;DHT22;9887;54.366;10.958;2024-02-15T10:59:45;11.60;99.90
19493;DHT22;9887;54.366;10.958;2024-02-15T11:02:26;11.60;99.90
19493;DHT22;9887;54.366;10.958;2024-02-15T11:05:02;11.70;99.90
19493;DHT22;9887;54.366;10.958;2024-02-15T11:07:31;11.70;99.90
19493;DHT22;9887;54.366;10.958;2024-02-15T11:10:00;11.70;99.90
19493;DHT22;9887;54.366;10.958;2024-02-15T11:12:29;11.70;99.90
19493;DHT22;9887;54.366;10.958;2024-02-15T11:14:57;11.70;99.90
19493;DHT22;9887;54.366;10.958;2024-02-15T11:17:45;11.80;99.90
19493;DHT22;9887;54.366;10.958;2024-02-15T11:20:48;11.80;99.90
19493;DHT22;9887;54.366;10.958;2024-02-15T11:23:26;11.80;99.90
19493;DHT22;9887;54.366;10.958;2024-02-15T11:26:00;11.90;99.90
19493;DHT22;9887;54.366;10.958;2024-02-15T11:28:36;11.90;99.90
19493;DHT22;9887;54.366;10.958;2024-02-15T11:31:10;11.90;99.90
19493;DHT22;9887;54.366;10.958;2024-02-15T11:33:43;11.90;99.90
19493;DHT22;9887;54.366;10.958;2024-02-15T11:36:13;12.00;99.90
19493;DHT22;9887;54.366;10.958;2024-02-15T11:38:41;12.00;99.90
19493;DHT22;9887;54.366;10.958;2024-02-15T11:41:10;12.00;99.90
19493;DHT22;9887;54.366;10.958;2024-02-15T11:43:49;12.00;99.90
19493;DHT22;9887;54.366;10.958;2024-02-15T11:46:18;12.00;99.90
19493;DHT22;9887;54.366;10.958;2024-02-15T11:48:47;12.10;99.90
19493;DHT22;9887;54.366;10.958;2024-02-15T11:51:30;12.10;99.90
19493;DHT22;9887;54.366;10.958;2024-02-15T11:54:05;12.10;99.90
19493;DHT22;9887;54.366;10.958;2024-02-15T11:56:53;12.10;99.90
19493;DHT22;9887;54.366;10.958;2024-02-15T11:59:39;12.10;99.90
19493;DHT22;9887;54.366;10.958;2024-02-15T12:02:20;12.20;99.90
19493;DHT22;9887;54.366;10.958;2024-02-15T12:05:18;12.20;99.90
19493;DHT22;9887;54.366;10.958;2024-02-15T12:08:06;12.20;99.90
19493;DHT22;9887;54.366;10.958;2024-02-15T12:10:57;12.20;99.90
19493;DHT22;9887;54.366;10.958;2024-02-15T12:13:43;12.20;99.90
19493;DHT22;9887;54.366;10.958;2024-02-15T12:16:28;12.30;99.90
19493;DHT22;9887;54.366;10.958;2024-02-15T12:19:14;12.30;99.90
19493;DHT22;9887;54.366;10.958;2024-02-15T12:21:44;12.30;99.90
19493;DHT22;9887;54.366;10.958;2024-02-15T12:24:14;12.30;99.90
19493;DHT22;9887;54.366;10.958;2024-02-15T12:26:44;12.30;99.90
19493;DHT22;9887;54.366;10.958;2024-02-15T12:29:16;12.30;99.90
19493;DHT22;9887;54.366;10.958;2024-02-15T12:31:44;12.40;99.90
19493;DHT22;9887;54.366;10.958;2024-02-15T12:34:13;12.40;99.90
19493;DHT22;9887;54.366;10.958;2024-02-15T12:36:43;12.40;99.90
19493;DHT22;9887;54.366;10.958;2024-02-15T12:39:11;12.40;99.90
19493;DHT22;9887;54.366;10.958;2024-02-15T12:41:48;12.40;99.90
19493;DHT22;9887;54.366;10.958;2024-02-15T12:44:18;12.40;99.90
19493;DHT22;9887;54.366;10.958;2024-02-15T12:46:47;12.40;99.90
19493;DHT22;9887;54.366;10.958;2024-02-15T12:49:27;12.40;99.90
19493;DHT22;9887;54.366;10.958;2024-02-15T12:55:07;12.50;99.90
19493;DHT22;9887;54.366;10.958;2024-02-15T12:57:38;12.50;99.90
19493;DHT22;9887;54.366;10.958;2024-02-15T13:00:09;12.50;99.90
19493;DHT22;9887;54.366;10.958;2024-02-15T13:02:45;12.50;99.90
19493;DHT22;9887;54.366;10.958;2024-02-15T13:05:16;12.50;99.90
19493;DHT22;9887;54.366;10.958;2024-02-15T13:07:46;12.50;99.90
19493;DHT22;9887;54.366;10.958;2024-02-15T13:10:14;12.50;99.90
19493;DHT22;9887;54.366;10.958;2024-02-15T13:12:44;12.60;99.90
19493;DHT22;9887;54.366;10.958;2024-02-15T13:15:14;12.50;99.90
19493;DHT22;9887;54.366;10.958;2024-02-15T13:17:44;12.60;99.90
19493;DHT22;9887;54.366;10.958;2024-02-15T13:20:13;12.60;99.90
19493;DHT22;9887;54.366;10.958;2024-02-15T13:22:42;12.60;99.90
19493;DHT22;9887;54.366;10.958;2024-02-15T13:25:11;12.60;99.90
19493;DHT22;9887;54.366;10.958;2024-02-15T13:27:40;12.60;99.90
19493;DHT22;9887;54.366;10.958;2024-02-15T13:30:10;12.60;99.90
19493;DHT22;9887;54.366;10.958;2024-02-15T13:32:39;12.60;99.90
19493;DHT22;9887;54.366;10.958;2024-02-15T13:35:09;12.60;99.90
19493;DHT22;9887;54.366;10.958;2024-02-15T13:37:41;12.60;99.90
19493;DHT22;9887;54.366;10.958;2024-02-15T13:40:16;12.60;99.90
19493;DHT22;9887;54.366;10.958;2024-02-15T13:42:44;12.60;99.90
19493;DHT22;9887;54.366;10.958;2024-02-15T13:45:17;12.60;99.90
19493;DHT22;9887;54.366;10.958;2024-02-15T13:47:45;12.60;99.90
19493;DHT22;9887;54.366;10.958;2024-02-15T13:50:14;12.60;99.90
19493;DHT22;9887;54.366;10.958;2024-02-15T13:52:44;12.60;99.90
19493;DHT22;9887;54.366;10.958;2024-02-15T13:55:13;12.60;99.90
19493;DHT22;9887;54.366;10.958;2024-02-15T13:57:44;12.70;99.90
19493;DHT22;9887;54.366;10.958;2024-02-15T14:00:14;12.60;99.90
19493;DHT22;9887;54.366;10.958;2024-02-15T14:02:50;12.70;99.90
19493;DHT22;9887;54.366;10.958;2024-02-15T14:05:18;12.70;99.90
19493;DHT22;9887;54.366;10.958;2024-02-15T14:07:50;12.70;99.90
19493;DHT22;9887;54.366;10.958;2024-02-15T14:10:19;12.70;99.90
19493;DHT22;9887;54.366;10.958;2024-02-15T14:12:48;12.70;99.90
19493;DHT22;9887;54.366;10.958;2024-02-15T14:15:16;12.70;99.90
19493;DHT22;9887;54.366;10.958;2024-02-15T14:17:45;12.70;99.90
19493;DHT22;9887;54.366;10.958;2024-02-15T14:20:14;12.70;99.90
19493;DHT22;9887;54.366;10.958;2024-02-15T14:22:44;12.70;99.90
19493;DHT22;9887;54.366;10.958;2024-02-15T14:25:15;12.70;99.90
19493;DHT22;9887;54.366;10.958;2024-02-15T14:27:43;12.70;99.90
19493;DHT22;9887;54.366;10.958;2024-02-15T14:30:12;12.70;99.90
19493;DHT22;9887;54.366;10.958;2024-02-15T14:32:57;12.70;99.90
19493;DHT22;9887;54.366;10.958;2024-02-15T14:35:34;12.70;99.90
19493;DHT22;9887;54.366;10.958;2024-02-15T14:38:03;12.70;99.90
19493;DHT22;9887;54.366;10.958;2024-02-15T14:40:33;12.70;99.90
19493;DHT22;9887;54.366;10.958;2024-02-15T14:43:05;12.70;99.90
19493;DHT22;9887;54.366;10.958;2024-02-15T14:45:33;12.70;99.90
19493;DHT22;9887;54.366;10.958;2024-02-15T14:48:03;12.70;99.90
19493;DHT22;9887;54.366;10.958;2024-02-15T14:50:33;12.70;99.90
19493;DHT22;9887;54.366;10.958;2024-02-15T14:53:01;12.70;99.90
19493;DHT22;9887;54.366;10.958;2024-02-15T14:55:29;12.70;99.90
19493;DHT22;9887;54.366;10.958;2024-02-15T14:57:58;12.70;99.90
19493;DHT22;9887;54.366;10.958;2024-02-15T15:00:29;12.70;99.90
19493;DHT22;9887;54.366;10.958;2024-02-15T15:03:04;12.70;99.90
19493;DHT22;9887;54.366;10.958;2024-02-15T15:05:33;12.70;99.90
19493;DHT22;9887;54.366;10.958;2024-02-15T15:08:19;12.60;99.90
19493;DHT22;9887;54.366;10.958;2024-02-15T15:11:04;12.70;99.90
19493;DHT22;9887;54.366;10.958;2024-02-15T15:13:50;12.70;99.90
19493;DHT22;9887;54.366;10.958;2024-02-15T15:16:18;12.70;99.90
19493;DHT22;9887;54.366;10.958;2024-02-15T15:18:48;12.70;99.90
19493;DHT22;9887;54.366;10.958;2024-02-15T15:21:18;12.70;99.90
19493;DHT22;9887;54.366;10.958;2024-02-15T15:23:47;12.60;99.90
19493;DHT22;9887;54.366;10.958;2024-02-15T15:26:19;12.60;99.90
19493;DHT22;9887;54.366;10.958;2024-02-15T15:28:48;12.60;99.90
19493;DHT22;9887;54.366;10.958;2024-02-15T15:31:17;12.60;99.90
19493;DHT22;9887;54.366;10.958;2024-02-15T15:33:47;12.60;99.90
19493;DHT22;9887;54.366;10.958;2024-02-15T15:36:17;12.60;99.90
19493;DHT22;9887;54.366;10.958;2024-02-15T15:38:47;12.60;99.90
19493;DHT22;9887;54.366;10.958;2024-02-15T15:41:15;12.60;99.90
19493;DHT22;9887;54.366;10.958;2024-02-15T15:43:43;12.60;99.90
19493;DHT22;9887;54.366;10.958;2024-02-15T15:46:13;12.60;99.90
19493;DHT22;9887;54.366;10.958;2024-02-15T15:48:42;12.60;99.90
19493;DHT22;9887;54.366;10.958;2024-02-15T15:51:11;12.50;99.90
19493;DHT22;9887;54.366;10.958;2024-02-15T15:53:43;12.50;99.90
19493;DHT22;9887;54.366;10.958;2024-02-15T15:56:12;12.50;99.90
19493;DHT22;9887;54.366;10.958;2024-02-15T15:58:40;12.50;99.90
19493;DHT22;9887;54.366;10.958;2024-02-15T16:01:11;12.50;99.90